Time;durP1;ratioP1;P1;durP2;ratioP2;P2;SDS_P1;SDS_P2;PMS_P1;PMS_P2;Temp;Humidity;BMP_temperature;BMP_pressure;BME280_temperature;BME280_humidity;BME280_pressure;Samples;Min_cycle;Max_cycle;Signal;HPM_P1;HPM_P2
2023/03/30 00:01:55;;;;;;;6.60;1.75;;;;;;;;;;5070933;28;20107;-60
2023/03/30 00:04:21;;;;;;;4.82;1.50;;;;;;;;;;5072300;28;20530;-61
2023/03/30 00:06:47;;;;;;;5.97;2.33;;;;;;;;;;5079344;28;20112;-60
2023/03/30 00:09:13;;;;;;;4.43;1.63;;;;;;;;;;5070598;28;20055;-60
2023/03/30 00:11:38;;;;;;;4.50;1.40;;;;;;;;;;5071109;28;20029;-61
2023/03/30 00:14:04;;;;;;;5.07;2.03;;;;;;;;;;5071046;28;20054;-61
2023/03/30 00:16:29;;;;;;;3.95;1.55;;;;;;;;;;5070156;28;20086;-60
2023/03/30 00:18:54;;;;;;;6.63;1.88;;;;;;;;;;5070648;28;20024;-60
2023/03/30 00:21:20;;;;;;;3.80;1.60;;;;;;;;;;5070916;28;20026;-61
2023/03/30 00:23:46;;;;;;;7.47;1.90;;;;;;;;;;5086808;28;20475;-61
2023/03/30 00:26:12;;;;;;;7.82;2.25;;;;;;;;;;5078334;28;20043;-61
2023/03/30 00:28:37;;;;;;;7.75;2.20;;;;;;;;;;5073412;28;20052;-61
2023/03/30 00:31:02;;;;;;;4.13;1.85;;;;;;;;;;5073442;28;20534;-60
2023/03/30 00:33:28;;;;;;;7.65;2.30;;;;;;;;;;5085226;28;20032;-60
2023/03/30 00:35:57;;;;;;;5.05;2.20;;;;;;;;;;5073624;28;20033;-60
2023/03/30 00:38:22;;;;;;;5.45;1.90;;;;;;;;;;5073298;28;20020;-61
2023/03/30 00:40:51;;;;;;;5.28;1.40;;;;;;;;;;5083098;28;20020;-60
2023/03/30 00:43:16;;;;;;;5.85;2.33;;;;;;;;;;5073436;28;20099;-60
2023/03/30 00:45:42;;;;;;;4.50;1.80;;;;;;;;;;5074393;28;20059;-60
2023/03/30 00:48:16;;;;;;;3.72;1.80;;;;;;;;;;5073733;28;20020;-60
2023/03/30 00:50:42;;;;;;;;;;;;;;;;;;5074042;28;20107;-61
2023/03/30 00:53:15;;;;;;;10.55;2.50;;;;;;;;;;5086729;28;20042;-61
2023/03/30 00:55:40;;;;;;;4.55;2.13;;;;;;;;;;5073531;28;20039;-60
2023/03/30 00:58:06;;;;;;;6.70;2.30;;;;;;;;;;5073524;28;20479;-60
2023/03/30 01:00:33;;;;;;;7.63;2.13;;;;;;;;;;5078626;28;20041;-61
2023/03/30 01:03:00;;;;;;;10.75;2.53;;;;;;;;;;5073177;28;20036;-60
2023/03/30 01:05:27;;;;;;;9.60;1.85;;;;;;;;;;5073558;28;20174;-61
2023/03/30 01:07:53;;;;;;;4.10;2.10;;;;;;;;;;5073502;28;20020;-61
2023/03/30 01:10:19;;;;;;;6.13;2.00;;;;;;;;;;5073060;28;20386;-60
2023/03/30 01:12:44;;;;;;;11.93;2.58;;;;;;;;;;5073873;28;20024;-61
2023/03/30 01:15:10;;;;;;;7.35;2.30;;;;;;;;;;5073362;28;20020;-61
2023/03/30 01:17:48;;;;;;;5.20;2.42;;;;;;;;;;5082310;28;20028;-61
2023/03/30 01:20:31;;;;;;;4.38;1.88;;;;;;;;;;5055109;28;20406;-61
2023/03/30 01:23:02;;;;;;;5.25;1.77;;;;;;;;;;5073009;28;20059;-60
2023/03/30 01:25:37;;;;;;;10.07;2.42;;;;;;;;;;5075797;28;20028;-60
2023/03/30 01:28:18;;;;;;;7.00;2.30;;;;;;;;;;5080656;28;20024;-60
2023/03/30 01:31:02;;;;;;;5.38;1.95;;;;;;;;;;5073259;28;20024;-60
2023/03/30 01:33:27;;;;;;;6.43;2.00;;;;;;;;;;5079586;28;20028;-60
2023/03/30 01:35:56;;;;;;;7.30;1.87;;;;;;;;;;5072749;28;20025;-60
2023/03/30 01:38:22;;;;;;;4.93;1.90;;;;;;;;;;5073317;28;20285;-60
2023/03/30 01:40:47;;;;;;;8.87;1.97;;;;;;;;;;5072619;28;20398;-61
2023/03/30 01:43:24;;;;;;;4.80;1.45;;;;;;;;;;5072782;28;20686;-60
2023/03/30 01:45:54;;;;;;;5.85;1.95;;;;;;;;;;5072571;28;20036;-61
2023/03/30 01:48:44;;;;;;;5.45;2.05;;;;;;;;;;5086275;28;20390;-61
2023/03/30 01:51:11;;;;;;;6.05;1.90;;;;;;;;;;5074647;28;20020;-61
2023/03/30 01:53:42;;;;;;;4.05;1.42;;;;;;;;;;5091356;28;20055;-61
2023/03/30 01:56:24;;;;;;;3.85;1.60;;;;;;;;;;5074058;28;20075;-60
2023/03/30 01:58:58;;;;;;;5.22;2.05;;;;;;;;;;5073787;28;20028;-60
2023/03/30 02:01:26;;;;;;;4.65;1.85;;;;;;;;;;5072329;28;20488;-60
2023/03/30 02:03:54;;;;;;;10.52;1.52;;;;;;;;;;5072500;28;20013;-60
2023/03/30 02:06:23;;;;;;;4.15;1.40;;;;;;;;;;5072536;28;20025;-60
2023/03/30 02:08:49;;;;;;;5.03;1.45;;;;;;;;;;5083027;28;20020;-60
2023/03/30 02:11:14;;;;;;;3.67;1.50;;;;;;;;;;5072329;28;20021;-60
2023/03/30 02:13:41;;;;;;;4.75;1.73;;;;;;;;;;5071985;28;20455;-60
2023/03/30 02:16:11;;;;;;;4.75;1.83;;;;;;;;;;5076442;28;20020;-60
2023/03/30 02:18:37;;;;;;;3.80;1.75;;;;;;;;;;5079870;28;20067;-60
2023/03/30 02:21:03;;;;;;;3.05;1.40;;;;;;;;;;5080251;28;20032;-60
2023/03/30 02:23:32;;;;;;;3.30;1.70;;;;;;;;;;5077211;28;20029;-60
2023/03/30 02:25:57;;;;;;;7.72;2.20;;;;;;;;;;5072383;28;21217;-60
2023/03/30 02:28:23;;;;;;;5.78;1.83;;;;;;;;;;5071323;28;20035;-60
2023/03/30 02:30:48;;;;;;;7.97;2.20;;;;;;;;;;5071763;28;20025;-60
2023/03/30 02:33:23;;;;;;;4.38;1.80;;;;;;;;;;5072257;28;20023;-60
2023/03/30 02:36:03;;;;;;;6.00;1.90;;;;;;;;;;5071556;28;20036;-60
2023/03/30 02:38:28;;;;;;;6.53;1.98;;;;;;;;;;5076695;28;20047;-60
2023/03/30 02:40:53;;;;;;;5.27;1.80;;;;;;;;;;5077737;28;20471;-60
2023/03/30 02:43:23;;;;;;;5.57;1.77;;;;;;;;;;5077390;28;20753;-60
2023/03/30 02:45:54;;;;;;;9.07;2.00;;;;;;;;;;5070769;28;20271;-60
2023/03/30 02:48:28;;;;;;;5.20;1.88;;;;;;;;;;5071811;28;20463;-60
2023/03/30 02:50:59;;;;;;;6.00;2.20;;;;;;;;;;5071235;28;20033;-60
2023/03/30 02:53:41;;;;;;;5.72;1.90;;;;;;;;;;5071303;28;20094;-60
2023/03/30 02:56:12;;;;;;;7.18;2.35;;;;;;;;;;5070817;28;20459;-60
2023/03/30 02:58:40;;;;;;;5.35;2.13;;;;;;;;;;5071960;28;20082;-60
2023/03/30 03:01:06;;;;;;;4.65;1.88;;;;;;;;;;5071537;28;20028;-60
2023/03/30 03:03:33;;;;;;;8.55;1.90;;;;;;;;;;5071029;28;20033;-60
2023/03/30 03:06:01;;;;;;;5.85;2.03;;;;;;;;;;5071221;28;20494;-60
2023/03/30 03:08:29;;;;;;;8.85;2.40;;;;;;;;;;5071332;28;20401;-60
2023/03/30 03:10:54;;;;;;;10.90;2.30;;;;;;;;;;5081529;28;20471;-60
2023/03/30 03:13:20;;;;;;;5.70;2.30;;;;;;;;;;5071373;28;20107;-60
2023/03/30 03:15:48;;;;;;;4.80;1.85;;;;;;;;;;5070850;28;20115;-60
2023/03/30 03:18:13;;;;;;;8.43;2.08;;;;;;;;;;5078637;28;20558;-60
2023/03/30 03:20:39;;;;;;;4.13;1.60;;;;;;;;;;5071102;28;20108;-60
2023/03/30 03:23:05;;;;;;;5.00;1.98;;;;;;;;;;5070844;28;20017;-60
2023/03/30 03:25:30;;;;;;;4.57;2.05;;;;;;;;;;5071569;28;20025;-60
2023/03/30 03:27:56;;;;;;;7.00;2.20;;;;;;;;;;5070794;28;20423;-60
2023/03/30 03:30:21;;;;;;;5.40;2.17;;;;;;;;;;5071200;28;20029;-60
2023/03/30 03:32:47;;;;;;;4.75;2.00;;;;;;;;;;5070581;28;20442;-60
2023/03/30 03:35:13;;;;;;;4.75;1.58;;;;;;;;;;5075090;28;20510;-60
2023/03/30 03:37:38;;;;;;;5.10;2.15;;;;;;;;;;5072258;28;20056;-60
2023/03/30 03:40:05;;;;;;;4.95;2.03;;;;;;;;;;5071070;28;20060;-60
2023/03/30 03:42:30;;;;;;;5.80;1.80;;;;;;;;;;5073082;28;20028;-60
2023/03/30 03:44:55;;;;;;;4.05;2.03;;;;;;;;;;5078866;28;20040;-60
2023/03/30 03:47:21;;;;;;;6.10;2.22;;;;;;;;;;5075721;28;20012;-60
2023/03/30 03:49:47;;;;;;;12.57;2.30;;;;;;;;;;5079011;28;20028;-60
2023/03/30 03:52:12;;;;;;;6.78;2.08;;;;;;;;;;5073573;28;20039;-60
2023/03/30 03:54:37;;;;;;;5.53;1.90;;;;;;;;;;5081177;28;20486;-60
2023/03/30 03:57:04;;;;;;;4.27;1.70;;;;;;;;;;5055770;28;20286;-61
2023/03/30 03:59:30;;;;;;;4.68;2.40;;;;;;;;;;5083948;28;20270;-61
2023/03/30 04:01:55;;;;;;;4.13;1.65;;;;;;;;;;5078080;28;20471;-61
2023/03/30 04:04:20;;;;;;;5.43;2.17;;;;;;;;;;5073996;28;20021;-60
2023/03/30 04:06:46;;;;;;;6.25;2.13;;;;;;;;;;5074098;28;20373;-61
2023/03/30 04:09:11;;;;;;;5.15;1.85;;;;;;;;;;5079611;28;20028;-61
2023/03/30 04:11:36;;;;;;;6.43;1.90;;;;;;;;;;5078484;28;20032;-60
2023/03/30 04:14:01;;;;;;;5.20;1.95;;;;;;;;;;5073838;28;20025;-60
2023/03/30 04:16:27;;;;;;;10.10;2.50;;;;;;;;;;5074098;28;20085;-60
2023/03/30 04:18:52;;;;;;;5.47;1.80;;;;;;;;;;5073995;28;20310;-60
2023/03/30 04:21:19;;;;;;;3.83;1.52;;;;;;;;;;5073725;28;20039;-61
2023/03/30 04:23:48;;;;;;;6.30;2.10;;;;;;;;;;5074136;28;20067;-60
2023/03/30 04:26:14;;;;;;;6.43;2.20;;;;;;;;;;5073832;28;20028;-61
2023/03/30 04:28:40;;;;;;;4.60;1.52;;;;;;;;;;5073783;28;20375;-60
2023/03/30 04:31:09;;;;;;;2.88;1.30;;;;;;;;;;5078182;28;20024;-60
2023/03/30 04:33:43;;;;;;;3.63;1.60;;;;;;;;;;5078440;28;20040;-61
2023/03/30 04:36:09;;;;;;;3.65;1.67;;;;;;;;;;5073529;28;20047;-61
2023/03/30 04:38:35;;;;;;;4.30;1.15;;;;;;;;;;5084503;28;20032;-61
2023/03/30 04:41:00;;;;;;;2.85;1.10;;;;;;;;;;5083775;28;20028;-60
2023/03/30 04:43:26;;;;;;;3.55;1.35;;;;;;;;;;5086650;28;20025;-61
2023/03/30 04:45:52;;;;;;;4.15;1.52;;;;;;;;;;5074584;28;20383;-61
2023/03/30 04:48:18;;;;;;;7.85;1.45;;;;;;;;;;5073407;28;20032;-61
2023/03/30 04:50:44;;;;;;;3.47;1.30;;;;;;;;;;5073622;28;20016;-61
2023/03/30 04:53:10;;;;;;;3.78;1.42;;;;;;;;;;5073544;28;20048;-60
2023/03/30 04:55:35;;;;;;;6.78;1.67;;;;;;;;;;5072872;28;20048;-60
2023/03/30 04:58:00;;;;;;;2.50;1.10;;;;;;;;;;5072651;28;20024;-61
2023/03/30 05:00:26;;;;;;;3.78;1.45;;;;;;;;;;5074871;28;20339;-61
2023/03/30 05:02:51;;;;;;;4.00;1.52;;;;;;;;;;5083047;28;20020;-60
2023/03/30 05:05:17;;;;;;;3.38;1.42;;;;;;;;;;5074363;28;20019;-60
2023/03/30 05:07:42;;;;;;;4.10;1.40;;;;;;;;;;5072615;28;20063;-61
2023/03/30 05:10:08;;;;;;;3.25;1.50;;;;;;;;;;5078265;28;20052;-60
2023/03/30 05:12:33;;;;;;;12.32;2.08;;;;;;;;;;5073111;28;20122;-60
2023/03/30 05:14:58;;;;;;;5.70;1.90;;;;;;;;;;5074863;28;20017;-61
2023/03/30 05:17:24;;;;;;;5.60;1.48;;;;;;;;;;5081956;28;20475;-60
2023/03/30 05:19:49;;;;;;;10.45;1.65;;;;;;;;;;5073629;28;20036;-60
2023/03/30 05:22:15;;;;;;;4.60;1.67;;;;;;;;;;5084016;28;20016;-60
2023/03/30 05:24:40;;;;;;;6.97;2.03;;;;;;;;;;5075836;28;20059;-60
2023/03/30 05:27:05;;;;;;;5.07;1.48;;;;;;;;;;5072909;28;20375;-60
2023/03/30 05:29:31;;;;;;;5.55;2.30;;;;;;;;;;5073300;28;20099;-60
2023/03/30 05:31:56;;;;;;;5.22;2.15;;;;;;;;;;5072724;28;20466;-60
2023/03/30 05:34:21;;;;;;;6.75;1.63;;;;;;;;;;5073940;28;20051;-60
2023/03/30 05:36:46;;;;;;;6.03;2.00;;;;;;;;;;5073233;28;20039;-60
2023/03/30 05:39:12;;;;;;;4.88;1.80;;;;;;;;;;5073675;28;20028;-61
2023/03/30 05:41:37;;;;;;;4.97;1.90;;;;;;;;;;5072646;28;20032;-60
2023/03/30 05:44:03;;;;;;;10.35;2.22;;;;;;;;;;5083358;28;20025;-61
2023/03/30 05:46:29;;;;;;;5.00;1.75;;;;;;;;;;5075205;28;20495;-61
2023/03/30 05:48:54;;;;;;;6.28;1.90;;;;;;;;;;5073940;28;20028;-62
2023/03/30 05:51:19;;;;;;;8.27;1.58;;;;;;;;;;5073361;28;20028;-61
2023/03/30 05:53:45;;;;;;;5.53;2.05;;;;;;;;;;5073276;28;20036;-60
2023/03/30 05:56:10;;;;;;;5.53;1.83;;;;;;;;;;5072537;28;20046;-60
2023/03/30 05:58:35;;;;;;;4.63;1.40;;;;;;;;;;5072252;28;20024;-60
2023/03/30 06:01:01;;;;;;;4.97;1.73;;;;;;;;;;5075571;28;20016;-60
2023/03/30 06:03:26;;;;;;;16.75;2.63;;;;;;;;;;5069292;28;20033;-61
2023/03/30 06:05:52;;;;;;;4.93;1.92;;;;;;;;;;5073951;28;20086;-61
2023/03/30 06:08:18;;;;;;;4.97;1.67;;;;;;;;;;5072884;28;20483;-61
2023/03/30 06:10:50;;;;;;;3.50;1.55;;;;;;;;;;5085800;28;20020;-61
2023/03/30 06:13:16;;;;;;;6.57;2.10;;;;;;;;;;5072487;28;20051;-60
2023/03/30 06:15:41;;;;;;;3.25;1.55;;;;;;;;;;5072186;28;20032;-61
2023/03/30 06:18:07;;;;;;;14.30;1.75;;;;;;;;;;5071944;28;20019;-61
2023/03/30 06:20:32;;;;;;;8.55;2.25;;;;;;;;;;5077731;28;20062;-60
2023/03/30 06:22:57;;;;;;;4.40;1.75;;;;;;;;;;5084501;28;20473;-61
2023/03/30 06:25:23;;;;;;;4.45;1.33;;;;;;;;;;5071967;28;20032;-61
2023/03/30 06:27:48;;;;;;;11.25;2.17;;;;;;;;;;5073567;28;20103;-61
2023/03/30 06:30:14;;;;;;;4.72;1.85;;;;;;;;;;5090813;28;20044;-60
2023/03/30 06:32:39;;;;;;;3.72;1.50;;;;;;;;;;5071353;28;20354;-59
2023/03/30 06:35:05;;;;;;;6.13;1.88;;;;;;;;;;5072497;28;20542;-60
2023/03/30 06:37:30;;;;;;;5.43;2.25;;;;;;;;;;5074520;28;20394;-60
2023/03/30 06:39:56;;;;;;;5.68;1.77;;;;;;;;;;5073902;28;20490;-60
2023/03/30 06:42:21;;;;;;;7.03;2.30;;;;;;;;;;5071868;28;20031;-60
2023/03/30 06:44:47;;;;;;;6.18;2.60;;;;;;;;;;5072208;28;20032;-60
2023/03/30 06:47:12;;;;;;;6.55;2.10;;;;;;;;;;5075270;28;20077;-61
2023/03/30 06:49:38;;;;;;;8.55;2.50;;;;;;;;;;5076874;28;20020;-60
2023/03/30 06:52:03;;;;;;;10.85;2.50;;;;;;;;;;5071535;28;20544;-61
2023/03/30 06:54:28;;;;;;;16.42;3.10;;;;;;;;;;5072357;28;20029;-60
2023/03/30 06:56:53;;;;;;;6.78;2.72;;;;;;;;;;5076307;28;20033;-60
2023/03/30 06:59:19;;;;;;;6.32;2.20;;;;;;;;;;5071707;28;20020;-60
2023/03/30 07:01:44;;;;;;;7.00;2.88;;;;;;;;;;5072353;28;20032;-60
2023/03/30 07:04:10;;;;;;;10.68;3.10;;;;;;;;;;5082755;28;20085;-60
2023/03/30 07:06:35;;;;;;;20.08;3.47;;;;;;;;;;5070765;28;20024;-60
2023/03/30 07:09:01;;;;;;;9.52;2.83;;;;;;;;;;5070981;28;20487;-60
2023/03/30 07:11:27;;;;;;;6.53;2.70;;;;;;;;;;5085830;28;20103;-60
2023/03/30 07:13:55;;;;;;;6.63;2.67;;;;;;;;;;5072619;28;20032;-60
2023/03/30 07:16:20;;;;;;;7.88;3.22;;;;;;;;;;5071257;28;20479;-60
2023/03/30 07:18:45;;;;;;;11.30;2.92;;;;;;;;;;5071167;28;20060;-60
2023/03/30 07:21:11;;;;;;;15.75;3.00;;;;;;;;;;5071873;28;20025;-60
2023/03/30 07:23:36;;;;;;;9.88;3.30;;;;;;;;;;5076731;28;20425;-60
2023/03/30 07:26:01;;;;;;;6.82;2.65;;;;;;;;;;5071207;28;20433;-60
2023/03/30 07:28:27;;;;;;;9.45;3.33;;;;;;;;;;5071391;28;20021;-60
2023/03/30 07:30:52;;;;;;;9.70;3.13;;;;;;;;;;5072409;28;20048;-60
2023/03/30 07:33:17;;;;;;;5.75;2.28;;;;;;;;;;5074902;28;20021;-60
2023/03/30 07:35:44;;;;;;;8.35;2.53;;;;;;;;;;5075382;28;20379;-60
2023/03/30 07:38:09;;;;;;;6.20;2.47;;;;;;;;;;5075487;28;20033;-60
2023/03/30 07:40:35;;;;;;;5.38;2.30;;;;;;;;;;5074150;28;20032;-60
2023/03/30 07:43:00;;;;;;;14.93;2.90;;;;;;;;;;5078790;28;20535;-60
2023/03/30 07:45:25;;;;;;;8.13;2.72;;;;;;;;;;5074545;28;20081;-60
2023/03/30 07:47:51;;;;;;;8.90;3.10;;;;;;;;;;5073346;28;20039;-60
2023/03/30 07:50:16;;;;;;;4.47;2.35;;;;;;;;;;5079893;28;20500;-60
2023/03/30 07:52:41;;;;;;;7.63;3.10;;;;;;;;;;5081740;28;20039;-60
2023/03/30 07:55:07;;;;;;;7.90;2.38;;;;;;;;;;5080872;28;20035;-60
2023/03/30 07:57:32;;;;;;;8.20;2.97;;;;;;;;;;5088261;28;20083;-60
2023/03/30 07:59:58;;;;;;;8.00;3.15;;;;;;;;;;5074454;28;20535;-61
2023/03/30 08:02:23;;;;;;;6.60;3.03;;;;;;;;;;5074200;28;20028;-61
2023/03/30 08:04:48;;;;;;;8.13;2.75;;;;;;;;;;5074213;28;20475;-60
2023/03/30 08:07:15;;;;;;;7.68;2.55;;;;;;;;;;5080698;28;20069;-60
2023/03/30 08:09:40;;;;;;;9.23;3.30;;;;;;;;;;5085495;28;20466;-60
2023/03/30 08:12:06;;;;;;;6.05;3.22;;;;;;;;;;5082781;28;20027;-60
2023/03/30 08:14:31;;;;;;;7.82;3.58;;;;;;;;;;5073823;28;20024;-60
2023/03/30 08:16:56;;;;;;;7.00;2.83;;;;;;;;;;5074064;28;20032;-60
2023/03/30 08:19:23;;;;;;;7.85;3.20;;;;;;;;;;5087436;28;20382;-62
2023/03/30 08:21:48;;;;;;;9.77;3.63;;;;;;;;;;5073290;28;20025;-60
2023/03/30 08:24:13;;;;;;;11.13;3.63;;;;;;;;;;5066943;28;20505;-60
2023/03/30 08:26:39;;;;;;;10.07;3.58;;;;;;;;;;5074657;28;20025;-60
2023/03/30 08:29:05;;;;;;;9.93;3.72;;;;;;;;;;5073704;28;20518;-60
2023/03/30 08:31:31;;;;;;;11.85;4.10;;;;;;;;;;5073826;28;20095;-61
2023/03/30 08:33:57;;;;;;;11.48;3.83;;;;;;;;;;5075610;28;20086;-60
2023/03/30 08:36:22;;;;;;;11.18;3.65;;;;;;;;;;5082995;28;20081;-60
2023/03/30 08:38:48;;;;;;;10.20;3.45;;;;;;;;;;5082297;28;20012;-60
2023/03/30 08:41:33;;;;;;;9.30;3.22;;;;;;;;;;5073865;28;20430;-60
2023/03/30 08:44:01;;;;;;;10.55;2.70;;;;;;;;;;5068757;28;20043;-61
2023/03/30 08:46:27;;;;;;;10.45;3.10;;;;;;;;;;5078287;28;20036;-62
2023/03/30 08:48:56;;;;;;;10.57;2.83;;;;;;;;;;5078782;28;20028;-60
2023/03/30 08:51:22;;;;;;;12.02;2.75;;;;;;;;;;5073232;28;20021;-60
2023/03/30 08:53:50;;;;;;;6.25;2.85;;;;;;;;;;5073247;28;20110;-60
2023/03/30 08:56:19;;;;;;;5.85;2.55;;;;;;;;;;5073705;28;20045;-60
2023/03/30 08:58:44;;;;;;;5.63;2.35;;;;;;;;;;5072905;28;20031;-60
2023/03/30 09:01:15;;;;;;;5.70;2.40;;;;;;;;;;5073220;28;20017;-60
2023/03/30 09:03:52;;;;;;;7.88;2.90;;;;;;;;;;5073170;28;20760;-59
2023/03/30 09:06:39;;;;;;;7.45;2.75;;;;;;;;;;5073012;28;20390;-60
2023/03/30 09:09:04;;;;;;;10.23;2.75;;;;;;;;;;5072929;28;20025;-60
2023/03/30 09:11:34;;;;;;;8.15;3.50;;;;;;;;;;5086140;28;20364;-61
2023/03/30 09:14:01;;;;;;;7.18;2.60;;;;;;;;;;5076643;28;20033;-60
2023/03/30 09:16:27;;;;;;;5.93;2.80;;;;;;;;;;5073228;28;20029;-60
2023/03/30 09:18:53;;;;;;;9.97;3.47;;;;;;;;;;5071970;28;20025;-60
2023/03/30 09:21:20;;;;;;;11.73;3.25;;;;;;;;;;5073911;28;20279;-60
2023/03/30 09:23:45;;;;;;;6.45;3.15;;;;;;;;;;5073113;28;20020;-60
2023/03/30 09:26:26;;;;;;;14.13;3.35;;;;;;;;;;5072683;28;20027;-60
2023/03/30 09:29:02;;;;;;;5.10;2.83;;;;;;;;;;5072573;28;20502;-60
2023/03/30 09:31:43;;;;;;;5.15;2.45;;;;;;;;;;5072862;28;20028;-60
2023/03/30 09:34:11;;;;;;;10.65;3.53;;;;;;;;;;5075628;28;20023;-60
2023/03/30 09:36:36;;;;;;;8.10;3.30;;;;;;;;;;5076813;28;20039;-59
2023/03/30 09:39:07;;;;;;;11.60;3.67;;;;;;;;;;5077147;28;20107;-61
2023/03/30 09:41:47;;;;;;;4.45;2.45;;;;;;;;;;5072493;28;20540;-60
2023/03/30 09:44:17;;;;;;;7.45;3.10;;;;;;;;;;5073151;28;20405;-59
2023/03/30 09:46:43;;;;;;;7.22;2.58;;;;;;;;;;5072824;28;20024;-60
2023/03/30 09:49:13;;;;;;;5.22;2.55;;;;;;;;;;5072878;28;20028;-62
2023/03/30 09:51:51;;;;;;;5.35;2.58;;;;;;;;;;5072657;28;20475;-60
2023/03/30 09:54:16;;;;;;;5.35;2.38;;;;;;;;;;5079173;28;20483;-62
2023/03/30 09:56:45;;;;;;;8.00;2.45;;;;;;;;;;5079323;28;20051;-63
2023/03/30 09:59:30;;;;;;;6.95;1.73;;;;;;;;;;5073059;28;20098;-61
2023/03/30 10:02:08;;;;;;;5.68;1.95;;;;;;;;;;5074697;28;20103;-59
2023/03/30 10:04:46;;;;;;;6.07;2.08;;;;;;;;;;5072221;28;20068;-60
2023/03/30 10:07:20;;;;;;;4.88;1.77;;;;;;;;;;5073189;28;20051;-60
2023/03/30 10:09:46;;;;;;;5.63;2.65;;;;;;;;;;5073536;28;20122;-60
2023/03/30 10:12:12;;;;;;;7.93;2.10;;;;;;;;;;5070529;28;20054;-61
2023/03/30 10:14:38;;;;;;;8.98;2.30;;;;;;;;;;5067594;28;20032;-60
2023/03/30 10:17:04;;;;;;;6.63;2.53;;;;;;;;;;5067962;28;20020;-60
2023/03/30 10:19:31;;;;;;;7.22;2.17;;;;;;;;;;5068348;28;20032;-62
2023/03/30 10:21:57;;;;;;;7.95;2.63;;;;;;;;;;5080838;28;20588;-61
2023/03/30 10:24:24;;;;;;;8.77;3.22;;;;;;;;;;5075246;28;20031;-61
2023/03/30 10:26:55;;;;;;;6.53;2.50;;;;;;;;;;5060794;28;20023;-60
2023/03/30 10:29:22;;;;;;;8.70;2.83;;;;;;;;;;5051984;28;20096;-60
2023/03/30 10:31:48;;;;;;;7.13;2.55;;;;;;;;;;5036637;28;20341;-60
2023/03/30 10:34:19;;;;;;;13.05;2.80;;;;;;;;;;5034094;28;20035;-60
2023/03/30 10:36:45;;;;;;;6.70;2.30;;;;;;;;;;5051610;28;20036;-60
2023/03/30 10:39:22;;;;;;;8.30;3.10;;;;;;;;;;5072357;28;20510;-59
2023/03/30 10:41:48;;;;;;;6.50;2.13;;;;;;;;;;5072864;28;20020;-60
2023/03/30 10:44:25;;;;;;;6.80;2.63;;;;;;;;;;5071663;28;20020;-60
2023/03/30 10:46:51;;;;;;;9.43;3.28;;;;;;;;;;5049729;28;20805;-60
2023/03/30 10:49:26;;;;;;;5.32;2.60;;;;;;;;;;5041987;28;20031;-60
2023/03/30 10:51:51;;;;;;;;;;;;;;;;;;5035888;28;20021;-60
2023/03/30 10:54:35;;;;;;;11.55;4.03;;;;;;;;;;5037401;28;19946;-60
2023/03/30 10:57:06;;;;;;;11.05;2.70;;;;;;;;;;5044267;28;20031;-61
2023/03/30 10:59:44;;;;;;;12.40;3.42;;;;;;;;;;5038050;28;20031;-61
2023/03/30 11:02:34;;;;;;;8.10;3.28;;;;;;;;;;5043386;28;20136;-61
2023/03/30 11:04:59;;;;;;;9.98;3.85;;;;;;;;;;5035460;28;20029;-61
2023/03/30 11:07:43;;;;;;;8.65;2.90;;;;;;;;;;5041593;28;20048;-61
2023/03/30 11:10:31;;;;;;;5.67;2.73;;;;;;;;;;5080163;28;20062;-61
2023/03/30 11:12:56;;;;;;;8.43;2.70;;;;;;;;;;5072657;28;20478;-60
2023/03/30 11:15:45;;;;;;;12.37;2.63;;;;;;;;;;5082928;28;20030;-60
2023/03/30 11:18:13;;;;;;;4.95;2.15;;;;;;;;;;5060857;28;20294;-61
2023/03/30 11:20:48;;;;;;;9.30;2.92;;;;;;;;;;5075221;28;20035;-60
2023/03/30 11:23:26;;;;;;;7.95;2.90;;;;;;;;;;5079941;28;20532;-61
2023/03/30 11:25:56;;;;;;;4.80;1.92;;;;;;;;;;5068096;28;20127;-61
2023/03/30 11:28:35;;;;;;;8.30;2.95;;;;;;;;;;5072675;28;20036;-60
2023/03/30 11:31:03;;;;;;;10.32;3.33;;;;;;;;;;5071874;28;20064;-61
2023/03/30 11:33:37;;;;;;;7.55;2.60;;;;;;;;;;5071379;28;20016;-60
2023/03/30 11:36:07;;;;;;;9.27;2.67;;;;;;;;;;5078069;28;20032;-61
2023/03/30 11:38:35;;;;;;;5.88;2.45;;;;;;;;;;5074513;28;20033;-61
2023/03/30 11:41:05;;;;;;;5.60;1.55;;;;;;;;;;5078869;28;20016;-61
2023/03/30 11:43:30;;;;;;;5.43;1.77;;;;;;;;;;5073198;28;20063;-60
2023/03/30 11:46:05;;;;;;;12.35;2.03;;;;;;;;;;5077749;28;20052;-60
2023/03/30 11:48:30;;;;;;;5.45;1.50;;;;;;;;;;5071497;28;20571;-60
2023/03/30 11:50:58;;;;;;;3.97;1.17;;;;;;;;;;5070471;28;20107;-61
2023/03/30 11:53:38;;;;;;;8.30;1.88;;;;;;;;;;5070170;28;20278;-60
2023/03/30 11:56:06;;;;;;;7.03;1.80;;;;;;;;;;5082224;28;20429;-61
2023/03/30 11:58:36;;;;;;;4.82;1.23;;;;;;;;;;5071217;28;20032;-60
2023/03/30 12:01:10;;;;;;;3.75;1.48;;;;;;;;;;5072491;28;20375;-60
2023/03/30 12:03:42;;;;;;;4.45;1.95;;;;;;;;;;5074386;28;20295;-60
2023/03/30 12:06:09;;;;;;;3.85;1.77;;;;;;;;;;5078890;28;20016;-60
2023/03/30 12:08:53;;;;;;;6.70;2.03;;;;;;;;;;5071066;28;20025;-60
2023/03/30 12:11:40;;;;;;;4.28;1.65;;;;;;;;;;5074343;28;20058;-60
2023/03/30 12:14:24;;;;;;;6.13;2.15;;;;;;;;;;5076269;28;20020;-61
2023/03/30 12:16:53;;;;;;;10.65;2.47;;;;;;;;;;5078102;28;20040;-61
2023/03/30 12:19:24;;;;;;;6.53;2.60;;;;;;;;;;5074341;28;20036;-60
2023/03/30 12:21:54;;;;;;;5.38;2.60;;;;;;;;;;5085646;28;20093;-61
2023/03/30 12:24:24;;;;;;;6.18;2.53;;;;;;;;;;5078458;28;20056;-60
2023/03/30 12:26:50;;;;;;;8.73;2.83;;;;;;;;;;5078533;28;20099;-61
2023/03/30 12:29:17;;;;;;;7.30;2.47;;;;;;;;;;5074413;28;20028;-60
2023/03/30 12:31:48;;;;;;;9.48;3.33;;;;;;;;;;5076559;28;20082;-60
2023/03/30 12:34:14;;;;;;;7.85;2.78;;;;;;;;;;5080277;28;20436;-60
2023/03/30 12:36:40;;;;;;;9.65;2.67;;;;;;;;;;5075251;28;20067;-60
2023/03/30 12:39:10;;;;;;;23.20;3.55;;;;;;;;;;5072775;28;20052;-60
2023/03/30 12:41:49;;;;;;;7.22;3.15;;;;;;;;;;5081031;28;20513;-61
2023/03/30 12:44:14;;;;;;;10.18;3.53;;;;;;;;;;5084570;28;20390;-61
2023/03/30 12:46:58;;;;;;;7.10;3.03;;;;;;;;;;5083419;28;20028;-60
2023/03/30 12:49:29;;;;;;;8.80;3.00;;;;;;;;;;5073215;28;20071;-62
2023/03/30 12:52:16;;;;;;;7.65;2.60;;;;;;;;;;5083725;28;20027;-62
2023/03/30 12:54:45;;;;;;;7.45;2.85;;;;;;;;;;5073349;28;20052;-60
2023/03/30 12:57:23;;;;;;;9.57;2.85;;;;;;;;;;5086486;28;20110;-60
2023/03/30 13:00:08;;;;;;;7.38;3.25;;;;;;;;;;5080438;28;20024;-60
2023/03/30 13:02:33;;;;;;;10.93;3.83;;;;;;;;;;5079578;28;20022;-61
2023/03/30 13:04:59;;;;;;;6.93;3.03;;;;;;;;;;5073631;28;20479;-62
2023/03/30 13:07:28;;;;;;;8.80;3.30;;;;;;;;;;5074125;28;20394;-60
2023/03/30 13:09:56;;;;;;;8.15;3.22;;;;;;;;;;5079390;28;20153;-61
2023/03/30 13:12:33;;;;;;;9.77;3.47;;;;;;;;;;5078878;28;20035;-60
2023/03/30 13:15:20;;;;;;;9.98;3.65;;;;;;;;;;5072678;28;20071;-61
2023/03/30 13:17:56;;;;;;;8.70;3.90;;;;;;;;;;5076456;28;20036;-61
2023/03/30 13:20:27;;;;;;;19.55;4.30;;;;;;;;;;5072825;28;20502;-60
2023/03/30 13:22:59;;;;;;;8.20;3.88;;;;;;;;;;5082714;28;20031;-63
2023/03/30 13:25:25;;;;;;;9.73;3.90;;;;;;;;;;5074395;28;20036;-61
2023/03/30 13:27:51;;;;;;;7.35;4.03;;;;;;;;;;5084033;28;20178;-61
2023/03/30 13:30:17;;;;;;;9.13;3.55;;;;;;;;;;5079421;28;20111;-61
2023/03/30 13:33:03;;;;;;;6.00;3.03;;;;;;;;;;5082013;28;20100;-61
2023/03/30 13:35:28;;;;;;;5.47;3.00;;;;;;;;;;5072770;28;20021;-60
2023/03/30 13:38:12;;;;;;;7.73;3.23;;;;;;;;;;5082513;28;20484;-61
2023/03/30 13:40:40;;;;;;;6.82;3.75;;;;;;;;;;5086031;28;20270;-60
2023/03/30 13:43:24;;;;;;;8.70;3.58;;;;;;;;;;5079550;28;20491;-60
2023/03/30 13:46:00;;;;;;;5.85;2.45;;;;;;;;;;5077502;28;20052;-60
2023/03/30 13:48:28;;;;;;;15.77;4.18;;;;;;;;;;5085720;28;20077;-61
2023/03/30 13:50:56;;;;;;;10.90;3.95;;;;;;;;;;5078638;28;20038;-60
2023/03/30 13:53:22;;;;;;;8.55;3.22;;;;;;;;;;5077652;28;20017;-60
2023/03/30 13:55:48;;;;;;;12.25;3.20;;;;;;;;;;5075725;28;20111;-60
2023/03/30 13:58:21;;;;;;;8.50;3.33;;;;;;;;;;5083797;28;20432;-60
2023/03/30 14:00:53;;;;;;;14.80;3.40;;;;;;;;;;5072503;28;20086;-61
2023/03/30 14:03:32;;;;;;;9.38;3.63;;;;;;;;;;5084536;28;20062;-61
2023/03/30 14:06:02;;;;;;;10.27;3.67;;;;;;;;;;5072924;28;20425;-60
2023/03/30 14:08:29;;;;;;;9.70;3.67;;;;;;;;;;5072329;28;20024;-60
2023/03/30 14:10:54;;;;;;;10.13;3.25;;;;;;;;;;5085488;28;20058;-60
2023/03/30 14:13:20;;;;;;;8.63;3.33;;;;;;;;;;5090902;28;20462;-61
2023/03/30 14:15:49;;;;;;;7.38;3.38;;;;;;;;;;5076846;28;20076;-60
2023/03/30 14:18:20;;;;;;;8.48;3.38;;;;;;;;;;5080383;28;20395;-60
2023/03/30 14:20:51;;;;;;;9.00;3.80;;;;;;;;;;5071541;28;20027;-60
2023/03/30 14:23:37;;;;;;;9.65;3.58;;;;;;;;;;5079685;28;20086;-61
2023/03/30 14:26:04;;;;;;;9.10;3.78;;;;;;;;;;5079590;28;20487;-60
2023/03/30 14:28:33;;;;;;;10.57;3.75;;;;;;;;;;5079086;28;20032;-61
2023/03/30 14:31:03;;;;;;;10.63;4.18;;;;;;;;;;5072237;28;20036;-60
2023/03/30 14:33:29;;;;;;;15.35;4.15;;;;;;;;;;5081811;28;20082;-60
2023/03/30 14:35:56;;;;;;;18.20;4.55;;;;;;;;;;5072384;28;20422;-61
2023/03/30 14:38:26;;;;;;;13.43;4.72;;;;;;;;;;5075575;28;20025;-61
2023/03/30 14:40:52;;;;;;;14.50;3.53;;;;;;;;;;5070903;28;20028;-61
2023/03/30 14:43:21;;;;;;;13.75;4.03;;;;;;;;;;5074854;28;20033;-61
2023/03/30 14:45:47;;;;;;;14.18;5.32;;;;;;;;;;5071336;28;20021;-61
2023/03/30 14:48:17;;;;;;;14.82;3.83;;;;;;;;;;5075334;28;20021;-62
2023/03/30 14:50:43;;;;;;;9.60;3.70;;;;;;;;;;5071375;28;20368;-62